createdAt,value
2023-02-15T00:00:19.553Z,90.70
2023-02-15T00:03:11.814Z,90.67
2023-02-15T00:05:44.113Z,90.68
2023-02-15T00:08:16.281Z,90.46
2023-02-15T00:10:48.664Z,90.46
2023-02-15T00:13:21.211Z,90.63
2023-02-15T00:15:53.730Z,90.71
2023-02-15T00:18:26.093Z,90.80
2023-02-15T00:20:59.162Z,90.75
2023-02-15T00:23:31.382Z,90.79
2023-02-15T00:26:11.828Z,90.88
2023-02-15T00:28:47.725Z,90.88
2023-02-15T00:31:22.125Z,90.73
2023-02-15T00:33:56.780Z,90.75
2023-02-15T00:36:29.023Z,91.28
2023-02-15T00:39:05.700Z,91.19
2023-02-15T00:41:38.612Z,91.04
2023-02-15T00:44:11.642Z,90.91
2023-02-15T00:46:44.265Z,90.77
2023-02-15T00:49:16.738Z,90.91
2023-02-15T00:51:49.490Z,90.83
2023-02-15T00:54:22.119Z,91.13
2023-02-15T00:56:56.237Z,91.25
2023-02-15T00:59:28.549Z,91.19
2023-02-15T01:02:00.832Z,91.24
2023-02-15T01:04:33.607Z,91.30
2023-02-15T01:07:10.114Z,91.11
2023-02-15T01:09:44.773Z,91.21
2023-02-15T01:12:19.501Z,90.95
2023-02-15T01:14:53.300Z,90.93
2023-02-15T01:17:25.742Z,90.90
2023-02-15T01:19:58.537Z,90.68
2023-02-15T01:22:30.975Z,90.68
2023-02-15T01:25:03.213Z,90.87
2023-02-15T01:27:35.608Z,91.12
2023-02-15T01:30:12.571Z,91.06
2023-02-15T01:32:45.978Z,91.15
2023-02-15T01:35:18.363Z,91.12
2023-02-15T01:37:51.012Z,90.94
2023-02-15T01:40:28.858Z,90.98
2023-02-15T01:43:03.389Z,90.85
2023-02-15T01:45:38.125Z,91.02
2023-02-15T01:48:21.909Z,90.79
2023-02-15T01:50:59.749Z,90.86
2023-02-15T01:53:38.074Z,91.02
2023-02-15T01:56:17.169Z,91.17
2023-02-15T01:58:56.356Z,91.09
2023-02-15T02:01:30.022Z,91.06
2023-02-15T02:04:09.125Z,90.92
2023-02-15T02:06:42.156Z,91.06
2023-02-15T02:09:14.896Z,91.18
2023-02-15T02:11:50.204Z,91.15
2023-02-15T02:14:23.141Z,91.27
2023-02-15T02:17:00.849Z,91.23
2023-02-15T02:20:16.468Z,91.21
2023-02-15T02:23:10.361Z,91.36
2023-02-15T02:25:59.464Z,91.39
2023-02-15T02:31:48.166Z,91.48
2023-02-15T02:34:27.900Z,91.34
2023-02-15T02:37:17.445Z,91.60
2023-02-15T02:39:57.857Z,91.55
2023-02-15T02:42:38.184Z,91.68
2023-02-15T02:45:16.091Z,91.54
2023-02-15T02:47:56.904Z,91.78
2023-02-15T02:50:31.768Z,91.76
2023-02-15T02:53:04.220Z,91.66
2023-02-15T02:55:42.416Z,91.78
2023-02-15T02:58:20.010Z,91.90
2023-02-15T03:00:59.867Z,92.10
2023-02-15T03:03:39.803Z,92.10
2023-02-15T03:06:18.915Z,92.32
2023-02-15T03:08:54.595Z,92.03
2023-02-15T03:11:27.560Z,92.21
2023-02-15T03:14:01.356Z,92.11
2023-02-15T03:16:33.878Z,92.33
2023-02-15T03:19:10.812Z,92.16
2023-02-15T03:21:50.555Z,92.06
2023-02-15T03:24:29.202Z,92.22
2023-02-15T03:27:05.585Z,92.46
2023-02-15T03:29:41.889Z,92.44
2023-02-15T03:32:16.880Z,92.38
2023-02-15T03:34:52.515Z,92.29
2023-02-15T03:37:32.200Z,92.29
2023-02-15T03:40:25.526Z,92.61
2023-02-15T03:43:04.167Z,92.48
2023-02-15T03:45:39.002Z,92.55
2023-02-15T03:48:14.074Z,92.62
2023-02-15T03:51:04.052Z,92.77
2023-02-15T03:53:37.311Z,92.72
2023-02-15T03:56:10.347Z,92.81
2023-02-15T03:58:59.271Z,92.96
2023-02-15T04:01:56.937Z,93.01
2023-02-15T04:04:34.492Z,92.85
2023-02-15T04:07:11.009Z,92.94
2023-02-15T04:10:01.012Z,93.02
2023-02-15T04:12:34.606Z,93.20
2023-02-15T04:15:25.338Z,93.10
2023-02-15T04:17:57.567Z,93.23
2023-02-15T04:20:48.512Z,93.16
2023-02-15T04:23:38.347Z,93.18
2023-02-15T04:26:10.631Z,93.26
2023-02-15T04:28:42.951Z,93.46
2023-02-15T04:31:15.352Z,93.21
2023-02-15T04:33:48.853Z,93.36
2023-02-15T04:36:21.234Z,93.41
2023-02-15T04:38:55.740Z,93.42
2023-02-15T04:41:28.013Z,93.62
2023-02-15T04:44:00.459Z,93.67
2023-02-15T04:46:33.229Z,93.71
2023-02-15T04:49:06.696Z,93.85
2023-02-15T04:51:40.660Z,93.71
2023-02-15T04:54:12.983Z,93.66
2023-02-15T04:56:45.706Z,93.69
2023-02-15T04:59:20.520Z,93.89
2023-02-15T05:01:52.826Z,93.94
2023-02-15T05:04:25.229Z,93.73
2023-02-15T05:06:57.937Z,93.83
2023-02-15T05:12:43.389Z,93.98
2023-02-15T05:15:16.016Z,94.00
2023-02-15T05:17:48.441Z,94.02
2023-02-15T05:20:21.088Z,94.18
2023-02-15T05:22:56.841Z,94.05
2023-02-15T05:25:47.080Z,94.18
2023-02-15T05:28:22.014Z,94.17
2023-02-15T05:31:03.311Z,94.35
2023-02-15T05:33:36.513Z,94.45
2023-02-15T05:36:10.268Z,94.46
2023-02-15T05:38:42.860Z,94.67
2023-02-15T05:41:15.197Z,94.59
2023-02-15T05:43:50.513Z,94.63
2023-02-15T05:46:22.789Z,94.60
2023-02-15T05:48:56.816Z,94.64
2023-02-15T05:51:32.140Z,94.86
2023-02-15T05:54:04.465Z,94.92
2023-02-15T05:56:36.650Z,94.95
2023-02-15T05:59:09.074Z,94.98
2023-02-15T06:01:41.459Z,95.14
2023-02-15T06:04:15.047Z,95.07
2023-02-15T06:06:47.479Z,95.22
2023-02-15T06:09:20.812Z,94.99
2023-02-15T06:11:53.463Z,95.06
2023-02-15T06:14:25.838Z,95.29
2023-02-15T06:16:58.044Z,95.46
2023-02-15T06:19:30.329Z,95.29
2023-02-15T06:22:03.029Z,95.73
2023-02-15T06:24:35.290Z,96.26
2023-02-15T06:27:07.555Z,96.00
2023-02-15T06:29:40.012Z,95.87
2023-02-15T06:32:12.731Z,96.47
2023-02-15T06:34:45.117Z,96.22
2023-02-15T06:37:19.985Z,96.29
2023-02-15T06:39:52.416Z,96.44
2023-02-15T06:42:24.908Z,96.46
2023-02-15T06:44:57.182Z,96.28
2023-02-15T06:47:30.320Z,96.57
2023-02-15T06:50:02.893Z,96.76
2023-02-15T06:52:35.321Z,96.81
2023-02-15T06:55:08.620Z,96.55
2023-02-15T06:57:40.897Z,96.61
2023-02-15T07:00:18.771Z,96.95
2023-02-15T07:02:58.725Z,96.74
2023-02-15T07:05:36.885Z,96.86
2023-02-15T07:08:10.671Z,96.92
2023-02-15T07:10:45.376Z,97.34
2023-02-15T07:13:17.609Z,97.60
2023-02-15T07:15:52.915Z,97.74
2023-02-15T07:18:25.288Z,97.53
2023-02-15T07:20:58.076Z,98.10
2023-02-15T07:23:30.484Z,98.27
2023-02-15T07:26:04.168Z,98.06
2023-02-15T07:28:37.438Z,97.99
2023-02-15T07:31:10.074Z,98.28
2023-02-15T07:33:43.166Z,98.25
2023-02-15T07:36:15.503Z,98.19
2023-02-15T07:38:47.956Z,98.40
2023-02-15T07:41:21.044Z,99.07
2023-02-15T07:43:53.434Z,98.99
2023-02-15T07:46:26.084Z,98.83
2023-02-15T07:49:01.083Z,99.09
2023-02-15T07:51:36.201Z,98.90
2023-02-15T07:54:10.789Z,99.34
2023-02-15T07:56:51.469Z,99.55
2023-02-15T07:59:26.291Z,99.15
2023-02-15T08:01:59.042Z,99.24
2023-02-15T08:04:32.337Z,99.32
2023-02-15T08:07:05.327Z,99.61
2023-02-15T08:09:37.837Z,99.34
2023-02-15T08:12:10.533Z,99.16
2023-02-15T08:14:43.041Z,99.36
2023-02-15T08:17:15.582Z,99.40
2023-02-15T08:19:48.937Z,99.71
2023-02-15T08:22:21.385Z,99.62
2023-02-15T08:24:55.323Z,99.78
2023-02-15T08:27:27.905Z,99.85
2023-02-15T08:30:00.755Z,99.89
2023-02-15T08:32:33.255Z,99.85
2023-02-15T08:35:07.587Z,99.87
2023-02-15T08:37:39.945Z,100.00
2023-02-15T08:40:14.611Z,99.98
2023-02-15T08:42:46.882Z,99.88
2023-02-15T08:45:19.547Z,99.91
2023-02-15T08:48:04.419Z,99.97
2023-02-15T08:50:50.162Z,100.00
2023-02-15T08:53:22.800Z,100.00
2023-02-15T08:56:00.474Z,99.99
2023-02-15T08:58:40.127Z,99.99
2023-02-15T09:01:21.144Z,100.00
2023-02-15T09:04:05.588Z,100.00
2023-02-15T09:06:47.633Z,100.00
2023-02-15T09:09:24.109Z,100.00
2023-02-15T09:12:00.396Z,100.00
2023-02-15T09:14:33.422Z,100.00
2023-02-15T09:17:05.937Z,100.00
2023-02-15T09:19:38.409Z,100.00
2023-02-15T09:22:15.068Z,100.00
2023-02-15T09:24:51.061Z,100.00
2023-02-15T09:27:23.295Z,100.00
2023-02-15T09:29:55.745Z,100.00
2023-02-15T09:32:28.226Z,100.00
2023-02-15T09:35:00.739Z,100.00
2023-02-15T09:37:40.268Z,100.00
2023-02-15T09:40:18.048Z,100.00
2023-02-15T09:46:26.060Z,100.00
2023-02-15T09:49:08.451Z,100.00
2023-02-15T09:52:10.746Z,100.00
2023-02-15T09:54:58.916Z,100.00
2023-02-15T09:57:38.817Z,100.00
2023-02-15T10:00:22.106Z,100.00
2023-02-15T10:03:13.021Z,100.00
2023-02-15T10:06:00.130Z,100.00
2023-02-15T10:08:59.976Z,100.00
2023-02-15T10:11:43.155Z,99.91
2023-02-15T10:14:39.410Z,99.75
2023-02-15T10:17:26.022Z,99.34
2023-02-15T10:20:12.847Z,99.57
2023-02-15T10:23:02.593Z,99.29
2023-02-15T10:25:44.239Z,99.58
2023-02-15T10:28:20.471Z,98.68
2023-02-15T10:30:54.399Z,96.38
2023-02-15T10:33:40.385Z,95.04
2023-02-15T10:36:30.243Z,95.57
2023-02-15T10:39:10.278Z,95.32
2023-02-15T10:41:53.024Z,92.22
2023-02-15T10:44:42.325Z,92.96
2023-02-15T10:47:31.952Z,91.97
2023-02-15T10:50:16.863Z,92.28
2023-02-15T10:53:07.940Z,91.39
2023-02-15T10:55:54.184Z,85.09
2023-02-15T10:58:38.434Z,75.48
2023-02-15T11:01:22.821Z,77.28
2023-02-15T11:04:18.572Z,79.17
2023-02-15T11:06:57.624Z,71.62
2023-02-15T11:09:39.189Z,72.51
2023-02-15T11:12:27.747Z,69.84
2023-02-15T11:15:05.007Z,62.70
2023-02-15T11:17:43.285Z,63.63
2023-02-15T11:20:26.500Z,64.68
2023-02-15T11:22:58.788Z,65.19
2023-02-15T11:25:34.877Z,62.14
2023-02-15T11:28:16.208Z,65.61
2023-02-15T11:30:55.643Z,58.33
2023-02-15T11:37:02.801Z,62.32
2023-02-15T11:39:34.362Z,62.08
2023-02-15T11:42:11.248Z,58.57
2023-02-15T11:44:48.117Z,59.99
2023-02-15T11:47:17.043Z,61.68
2023-02-15T11:49:47.258Z,64.23
2023-02-15T11:52:19.198Z,58.48
2023-02-15T11:54:51.034Z,59.62
2023-02-15T11:57:27.785Z,59.60
2023-02-15T12:00:04.399Z,60.59
2023-02-15T12:02:39.360Z,61.14
2023-02-15T12:05:13.608Z,60.82
2023-02-15T12:07:47.169Z,62.70
2023-02-15T12:10:22.908Z,61.59
2023-02-15T12:13:11.692Z,61.10
2023-02-15T12:15:44.126Z,62.19
2023-02-15T12:18:25.909Z,61.92
2023-02-15T12:20:59.093Z,61.89
2023-02-15T12:23:30.135Z,59.27
2023-02-15T12:26:00.316Z,58.95
2023-02-15T12:28:35.651Z,58.99
2023-02-15T12:31:18.679Z,58.72
2023-02-15T12:33:49.194Z,59.68
2023-02-15T12:36:22.240Z,57.86
2023-02-15T12:39:18.073Z,59.06
2023-02-15T12:41:57.758Z,56.50
2023-02-15T12:44:29.281Z,57.81
2023-02-15T12:47:00.547Z,57.92
2023-02-15T12:49:30.739Z,57.06
2023-02-15T12:52:01.613Z,55.87
2023-02-15T12:54:40.666Z,53.73
2023-02-15T12:57:23.510Z,54.35
2023-02-15T12:59:54.959Z,55.63
2023-02-15T13:02:27.897Z,54.85
2023-02-15T13:04:58.371Z,53.57
2023-02-15T13:07:33.312Z,50.33
2023-02-15T13:10:02.542Z,52.94
2023-02-15T13:12:32.707Z,51.58
2023-02-15T13:15:05.124Z,47.40
2023-02-15T13:17:35.271Z,51.19
2023-02-15T13:20:09.811Z,52.56
2023-02-15T13:22:43.392Z,51.48
2023-02-15T13:25:18.996Z,51.20
2023-02-15T13:27:52.761Z,51.56
2023-02-15T13:30:27.493Z,49.64
2023-02-15T13:33:04.946Z,47.38
2023-02-15T13:35:42.704Z,46.85
2023-02-15T13:38:28.239Z,45.29
2023-02-15T13:41:04.227Z,46.27
2023-02-15T13:43:46.799Z,46.64
2023-02-15T13:46:25.785Z,47.92
2023-02-15T13:49:07.371Z,46.47
2023-02-15T13:51:42.567Z,46.08
2023-02-15T13:54:37.814Z,46.89
2023-02-15T13:57:26.261Z,46.79
2023-02-15T14:00:10.319Z,47.01
2023-02-15T14:03:19.368Z,47.55
2023-02-15T14:06:04.344Z,47.44
2023-02-15T14:08:52.130Z,47.68
2023-02-15T14:11:28.407Z,48.02
2023-02-15T14:14:41.099Z,47.16
2023-02-15T14:17:23.634Z,47.15
2023-02-15T14:19:58.391Z,47.21
2023-02-15T14:22:36.956Z,47.12
2023-02-15T14:25:18.944Z,46.98
2023-02-15T14:27:57.396Z,46.90
2023-02-15T14:30:30.562Z,47.89
2023-02-15T14:33:06.841Z,47.89
2023-02-15T14:35:36.932Z,47.26
2023-02-15T14:38:16.167Z,47.83
2023-02-15T14:41:02.591Z,48.53
2023-02-15T14:43:42.043Z,48.86
2023-02-15T14:46:19.637Z,47.48
2023-02-15T14:48:51.478Z,47.71
2023-02-15T14:51:58.396Z,47.80
2023-02-15T14:54:59.075Z,48.16
2023-02-15T14:57:34.863Z,48.30
2023-02-15T15:00:34.610Z,48.60
2023-02-15T15:03:10.946Z,48.30
2023-02-15T15:05:50.655Z,48.46
2023-02-15T15:08:29.861Z,48.47
2023-02-15T15:11:44.201Z,48.94
2023-02-15T15:14:41.919Z,49.05
2023-02-15T15:17:38.157Z,49.48
2023-02-15T15:20:14.106Z,49.58
2023-02-15T15:22:44.009Z,50.16
2023-02-15T15:25:35.198Z,50.45
2023-02-15T15:28:04.906Z,50.78
2023-02-15T15:30:54.949Z,51.09
2023-02-15T15:34:07.097Z,51.57
2023-02-15T15:37:08.066Z,51.67
2023-02-15T15:40:10.866Z,51.91
2023-02-15T15:42:50.704Z,52.34
2023-02-15T15:45:55.108Z,52.78
2023-02-15T15:48:31.914Z,53.16
2023-02-15T15:51:04.324Z,53.11
2023-02-15T15:53:41.654Z,53.29
2023-02-15T15:56:16.451Z,53.74
2023-02-15T15:58:50.308Z,53.88
2023-02-15T16:01:27.277Z,54.17
2023-02-15T16:03:57.879Z,54.43
2023-02-15T16:06:33.942Z,54.76
2023-02-15T16:09:18.930Z,55.02
2023-02-15T16:11:51.446Z,55.39
2023-02-15T16:14:27.571Z,55.72
2023-02-15T16:16:59.060Z,55.99
2023-02-15T16:19:31.687Z,56.32
2023-02-15T16:22:03.199Z,56.57
2023-02-15T16:24:49.973Z,56.92
2023-02-15T16:27:32.077Z,57.34
2023-02-15T16:30:19.093Z,57.52
2023-02-15T16:32:48.518Z,57.71
2023-02-15T16:35:22.607Z,58.05
2023-02-15T16:37:58.934Z,58.58
2023-02-15T16:40:36.683Z,58.89
2023-02-15T16:43:12.533Z,58.86
2023-02-15T16:45:41.616Z,59.19
2023-02-15T16:48:19.437Z,59.45
2023-02-15T16:50:55.512Z,59.77
2023-02-15T16:53:27.284Z,60.16
2023-02-15T16:55:58.718Z,60.60
2023-02-15T16:58:36.932Z,60.63
2023-02-15T17:01:09.603Z,60.84
2023-02-15T17:03:39.861Z,61.31
2023-02-15T17:06:22.085Z,61.39
2023-02-15T17:08:51.193Z,61.80
2023-02-15T17:11:22.139Z,62.09
2023-02-15T17:14:14.811Z,62.20
2023-02-15T17:16:49.410Z,62.78
2023-02-15T17:19:21.708Z,62.99
2023-02-15T17:21:53.547Z,63.16
2023-02-15T17:24:36.588Z,63.27
2023-02-15T17:27:12.862Z,63.50
2023-02-15T17:29:45.521Z,63.80
2023-02-15T17:32:19.665Z,64.10
2023-02-15T17:35:17.620Z,64.43
2023-02-15T17:37:49.157Z,64.47
2023-02-15T17:40:25.515Z,64.55
2023-02-15T17:46:07.771Z,64.80
2023-02-15T17:48:43.377Z,65.35
2023-02-15T17:51:17.463Z,65.68
2023-02-15T17:54:04.274Z,66.12
2023-02-15T17:56:38.178Z,66.09
2023-02-15T17:59:12.607Z,66.12
2023-02-15T18:02:07.271Z,66.12
2023-02-15T18:04:58.069Z,66.40
2023-02-15T18:07:49.102Z,66.99
2023-02-15T18:10:39.744Z,67.35
2023-02-15T18:13:12.188Z,67.85
2023-02-15T18:15:44.550Z,68.02
2023-02-15T18:18:16.979Z,68.13
2023-02-15T18:20:49.364Z,68.48
2023-02-15T18:23:21.673Z,68.58
2023-02-15T18:25:53.977Z,68.49
2023-02-15T18:28:26.255Z,68.67
2023-02-15T18:31:01.917Z,68.86
2023-02-15T18:33:40.463Z,69.14
2023-02-15T18:36:19.703Z,69.50
2023-02-15T18:38:53.631Z,69.56
2023-02-15T18:41:26.657Z,69.52
2023-02-15T18:43:58.832Z,69.74
2023-02-15T18:46:31.003Z,70.85
2023-02-15T18:49:03.183Z,70.91
2023-02-15T18:51:40.434Z,71.95
2023-02-15T18:54:21.550Z,71.63
2023-02-15T18:56:57.595Z,71.72
2023-02-15T18:59:32.633Z,72.01
2023-02-15T19:02:07.225Z,73.53
2023-02-15T19:04:39.531Z,74.33
2023-02-15T19:07:18.664Z,73.79
2023-02-15T19:09:54.170Z,73.74
2023-02-15T19:12:27.435Z,76.72
2023-02-15T19:15:00.103Z,74.59
2023-02-15T19:17:32.493Z,74.68
2023-02-15T19:20:04.686Z,74.49
2023-02-15T19:22:36.997Z,75.59
2023-02-15T19:25:14.990Z,75.76
2023-02-15T19:27:50.520Z,75.53
2023-02-15T19:30:29.970Z,75.21
2023-02-15T19:33:05.149Z,74.83
2023-02-15T19:35:38.346Z,75.76
2023-02-15T19:38:17.354Z,76.84
2023-02-15T19:40:50.412Z,76.27
2023-02-15T19:43:27.913Z,77.19
2023-02-15T19:46:00.171Z,77.76
2023-02-15T19:48:32.841Z,76.94
2023-02-15T19:51:05.226Z,78.48
2023-02-15T19:53:37.462Z,78.10
2023-02-15T19:56:14.167Z,77.76
2023-02-15T19:58:46.314Z,78.10
2023-02-15T20:01:19.411Z,78.18
2023-02-15T20:03:52.232Z,78.25
2023-02-15T20:06:24.476Z,78.05
2023-02-15T20:08:57.093Z,77.30
2023-02-15T20:11:29.326Z,77.49
2023-02-15T20:14:01.518Z,77.42
2023-02-15T20:16:33.756Z,78.03
2023-02-15T20:19:06.507Z,78.44
2023-02-15T20:21:39.274Z,78.29
2023-02-15T20:24:17.948Z,79.96
2023-02-15T20:26:50.445Z,79.78
2023-02-15T20:29:23.175Z,79.97
2023-02-15T20:31:55.861Z,79.07
2023-02-15T20:34:28.239Z,78.95
2023-02-15T20:37:00.921Z,78.78
2023-02-15T20:39:35.001Z,79.12
2023-02-15T20:42:07.553Z,80.00
2023-02-15T20:44:41.238Z,80.09
2023-02-15T20:47:16.575Z,79.48
2023-02-15T20:49:48.972Z,79.93
2023-02-15T20:52:22.205Z,79.24
2023-02-15T20:54:54.673Z,79.65
2023-02-15T20:57:26.971Z,79.40
2023-02-15T20:59:59.564Z,79.41
2023-02-15T21:02:31.897Z,80.24
2023-02-15T21:05:04.818Z,80.74
2023-02-15T21:07:38.454Z,80.43
2023-02-15T21:10:16.993Z,80.53
2023-02-15T21:12:51.012Z,81.64
2023-02-15T21:15:32.978Z,80.68
2023-02-15T21:18:08.203Z,80.70
2023-02-15T21:20:46.547Z,80.78
2023-02-15T21:23:22.322Z,81.42
2023-02-15T21:25:55.471Z,80.93
2023-02-15T21:28:29.130Z,81.40
2023-02-15T21:31:02.304Z,81.70
2023-02-15T21:33:35.155Z,81.06
2023-02-15T21:36:14.238Z,81.21
2023-02-15T21:38:47.066Z,81.38
2023-02-15T21:41:41.884Z,82.23
2023-02-15T21:44:38.349Z,81.43
2023-02-15T21:47:39.047Z,81.63
2023-02-15T21:50:31.676Z,82.73
2023-02-15T21:53:05.228Z,82.77
2023-02-15T21:55:37.525Z,82.78
2023-02-15T21:58:16.138Z,82.14
2023-02-15T22:00:49.481Z,82.83
2023-02-15T22:03:22.239Z,82.56
2023-02-15T22:05:54.645Z,82.91
2023-02-15T22:08:26.808Z,82.68
2023-02-15T22:10:59.502Z,82.36
2023-02-15T22:13:34.262Z,82.50
2023-02-15T22:16:07.098Z,83.24
2023-02-15T22:18:39.271Z,83.08
2023-02-15T22:21:12.219Z,82.48
2023-02-15T22:23:44.478Z,82.62
2023-02-15T22:26:23.845Z,82.68
2023-02-15T22:28:57.925Z,83.12
2023-02-15T22:31:30.946Z,82.71
2023-02-15T22:34:05.830Z,82.71
2023-02-15T22:36:38.244Z,83.96
2023-02-15T22:39:10.537Z,83.50
2023-02-15T22:41:42.960Z,83.52
2023-02-15T22:44:18.875Z,84.38
2023-02-15T22:46:51.460Z,84.29
2023-02-15T22:49:24.101Z,83.78
2023-02-15T22:51:56.466Z,83.66
2023-02-15T22:54:28.743Z,83.60
2023-02-15T22:57:01.532Z,83.62
2023-02-15T22:59:34.377Z,83.57
2023-02-15T23:02:07.680Z,83.88
2023-02-15T23:04:39.888Z,84.16
2023-02-15T23:07:16.444Z,84.51
2023-02-15T23:09:49.149Z,84.57
2023-02-15T23:12:28.215Z,84.59
2023-02-15T23:15:00.699Z,84.98
2023-02-15T23:17:33.127Z,84.72
2023-02-15T23:20:05.931Z,84.73
2023-02-15T23:22:38.383Z,84.91
2023-02-15T23:25:13.952Z,84.57
2023-02-15T23:27:58.542Z,84.98
2023-02-15T23:30:30.950Z,84.85
2023-02-15T23:33:03.422Z,85.26
2023-02-15T23:35:35.875Z,85.23
2023-02-15T23:38:13.508Z,85.68
2023-02-15T23:41:05.370Z,85.74
2023-02-15T23:43:38.676Z,85.61
2023-02-15T23:46:18.611Z,85.61
2023-02-15T23:48:51.180Z,86.24
2023-02-15T23:51:32.992Z,86.04
2023-02-15T23:54:05.536Z,85.87
2023-02-15T23:56:42.311Z,85.58
2023-02-15T23:59:19.293Z,86.37
